sensor_id;sensor_type;location;lat;lon;timestamp;pressure;altitude;pressure_sealevel;temperature;humidity
47430;BME280;33181;49.246;7.372;2023-02-28T00:00:51;99642.16;;;-0.15;58.09
47430;BME280;33181;49.246;7.372;2023-02-28T00:03:17;99643.81;;;-0.12;58.05
47430;BME280;33181;49.246;7.372;2023-02-28T00:05:45;99646.47;;;-0.17;58.17
47430;BME280;33181;49.246;7.372;2023-02-28T00:08:11;99645.56;;;-0.14;58.20
47430;BME280;33181;49.246;7.372;2023-02-28T00:10:38;99641.13;;;-0.08;58.02
47430;BME280;33181;49.246;7.372;2023-02-28T00:13:06;99640.06;;;0.01;58.51
47430;BME280;33181;49.246;7.372;2023-02-28T00:15:33;99647.09;;;-0.06;58.02
47430;BME280;33181;49.246;7.372;2023-02-28T00:17:59;99642.84;;;-0.08;58.47
47430;BME280;33181;49.246;7.372;2023-02-28T00:20:25;99641.09;;;-0.06;58.50
47430;BME280;33181;49.246;7.372;2023-02-28T00:22:53;99643.59;;;-0.03;58.01
47430;BME280;33181;49.246;7.372;2023-02-28T00:25:22;99641.13;;;-0.08;58.46
47430;BME280;33181;49.246;7.372;2023-02-28T00:27:49;99637.00;;;-0.16;58.80
47430;BME280;33181;49.246;7.372;2023-02-28T00:30:21;99641.38;;;-0.20;58.99
47430;BME280;33181;49.246;7.372;2023-02-28T00:32:47;99648.03;;;-0.10;58.91
47430;BME280;33181;49.246;7.372;2023-02-28T00:35:13;99640.28;;;-0.08;58.31
47430;BME280;33181;49.246;7.372;2023-02-28T00:37:39;99638.59;;;-0.09;58.66
47430;BME280;33181;49.246;7.372;2023-02-28T00:40:06;99641.31;;;-0.17;58.77
47430;BME280;33181;49.246;7.372;2023-02-28T00:42:34;99641.31;;;-0.15;58.58
47430;BME280;33181;49.246;7.372;2023-02-28T00:44:59;99641.38;;;-0.20;58.83
47430;BME280;33181;49.246;7.372;2023-02-28T00:47:25;99639.84;;;-0.27;58.96
47430;BME280;33181;49.246;7.372;2023-02-28T00:49:51;99647.72;;;-0.33;59.64
47430;BME280;33181;49.246;7.372;2023-02-28T00:52:17;99647.59;;;-0.29;59.31
47430;BME280;33181;49.246;7.372;2023-02-28T00:54:43;99641.66;;;-0.32;59.36
47430;BME280;33181;49.246;7.372;2023-02-28T00:57:08;99641.59;;;-0.29;59.45
47430;BME280;33181;49.246;7.372;2023-02-28T00:59:35;99642.44;;;-0.29;59.39
47430;BME280;33181;49.246;7.372;2023-02-28T01:02:00;99643.50;;;-0.37;59.62
47430;BME280;33181;49.246;7.372;2023-02-28T01:04:26;99645.16;;;-0.35;60.00
47430;BME280;33181;49.246;7.372;2023-02-28T01:06:52;99642.44;;;-0.29;59.58
47430;BME280;33181;49.246;7.372;2023-02-28T01:09:18;99641.53;;;-0.26;59.17
47430;BME280;33181;49.246;7.372;2023-02-28T01:11:43;99650.13;;;-0.26;59.19
47430;BME280;33181;49.246;7.372;2023-02-28T01:14:14;99644.47;;;-0.43;59.95
47430;BME280;33181;49.246;7.372;2023-02-28T01:16:40;99641.84;;;-0.41;59.96
47430;BME280;33181;49.246;7.372;2023-02-28T01:19:06;99651.34;;;-0.42;59.71
47430;BME280;33181;49.246;7.372;2023-02-28T01:21:32;99647.00;;;-0.40;59.83
47430;BME280;33181;49.246;7.372;2023-02-28T01:23:58;99645.13;;;-0.33;59.96
47430;BME280;33181;49.246;7.372;2023-02-28T01:26:24;99646.09;;;-0.39;60.08
47430;BME280;33181;49.246;7.372;2023-02-28T01:28:51;99642.09;;;-0.52;60.34
47430;BME280;33181;49.246;7.372;2023-02-28T01:31:19;99641.91;;;-0.44;59.76
47430;BME280;33181;49.246;7.372;2023-02-28T01:33:45;99650.56;;;-0.45;60.29
47430;BME280;33181;49.246;7.372;2023-02-28T01:36:18;99644.22;;;-0.71;60.80
47430;BME280;33181;49.246;7.372;2023-02-28T01:38:44;99643.19;;;-0.64;60.41
47430;BME280;33181;49.246;7.372;2023-02-28T01:41:28;99647.44;;;-0.61;60.63
47430;BME280;33181;49.246;7.372;2023-02-28T01:44:54;99650.16;;;-0.67;61.03
47430;BME280;33181;49.246;7.372;2023-02-28T01:46:53;99647.56;;;-0.66;60.87
47430;BME280;33181;49.246;7.372;2023-02-28T01:49:19;99639.94;;;-0.72;61.51
47430;BME280;33181;49.246;7.372;2023-02-28T01:51:55;99644.09;;;-0.65;61.08
47430;BME280;33181;49.246;7.372;2023-02-28T01:54:33;99639.94;;;-0.72;61.46
47430;BME280;33181;49.246;7.372;2023-02-28T01:57:12;99646.72;;;-0.68;61.63
47430;BME280;33181;49.246;7.372;2023-02-28T01:59:46;99634.59;;;-0.64;61.61
47430;BME280;33181;49.246;7.372;2023-02-28T02:02:22;99632.69;;;-0.55;61.26
47430;BME280;33181;49.246;7.372;2023-02-28T02:04:55;99631.06;;;-0.60;61.00
47430;BME280;33181;49.246;7.372;2023-02-28T02:07:23;99629.56;;;-0.69;61.42
47430;BME280;33181;49.246;7.372;2023-02-28T02:09:59;99634.66;;;-0.66;61.53
47430;BME280;33181;49.246;7.372;2023-02-28T02:13:18;99636.47;;;-0.71;62.08
47430;BME280;33181;49.246;7.372;2023-02-28T02:16:05;99633.31;;;-0.85;62.37
47430;BME280;33181;49.246;7.372;2023-02-28T02:27:59;99619.63;;;-0.87;62.64
47430;BME280;33181;49.246;7.372;2023-02-28T02:36:26;99619.78;;;-0.97;63.20
47430;BME280;33181;49.246;7.372;2023-02-28T02:41:53;99622.50;;;-1.04;63.46
47430;BME280;33181;49.246;7.372;2023-02-28T02:44:47;99622.25;;;-0.90;63.02
47430;BME280;33181;49.246;7.372;2023-02-28T02:47:19;99621.41;;;-0.91;63.11
47430;BME280;33181;49.246;7.372;2023-02-28T02:49:52;99629.19;;;-0.94;63.17
47430;BME280;33181;49.246;7.372;2023-02-28T02:52:24;99628.59;;;-1.07;63.97
47430;BME280;33181;49.246;7.372;2023-02-28T02:54:55;99627.97;;;-1.20;64.45
47430;BME280;33181;49.246;7.372;2023-02-28T02:57:36;99625.56;;;-1.29;65.16
47430;BME280;33181;49.246;7.372;2023-02-28T03:00:05;99631.28;;;-1.14;64.45
47430;BME280;33181;49.246;7.372;2023-02-28T03:02:36;99627.88;;;-1.15;64.62
47430;BME280;33181;49.246;7.372;2023-02-28T03:05:19;99625.13;;;-1.07;64.64
47430;BME280;33181;49.246;7.372;2023-02-28T03:07:47;99620.03;;;-1.09;64.71
47430;BME280;33181;49.246;7.372;2023-02-28T03:10:36;99625.28;;;-1.15;64.50
47430;BME280;33181;49.246;7.372;2023-02-28T03:16:33;99624.56;;;-1.22;65.35
47430;BME280;33181;49.246;7.372;2023-02-28T03:27:16;99615.19;;;-1.26;65.68
47430;BME280;33181;49.246;7.372;2023-02-28T03:35:01;99612.63;;;-1.27;65.91
47430;BME280;33181;49.246;7.372;2023-02-28T03:37:32;99614.38;;;-1.29;66.12
47430;BME280;33181;49.246;7.372;2023-02-28T03:40:13;99623.69;;;-1.21;65.68
47430;BME280;33181;49.246;7.372;2023-02-28T03:42:43;99613.47;;;-1.25;66.28
47430;BME280;33181;49.246;7.372;2023-02-28T03:45:15;99616.06;;;-1.25;66.19
47430;BME280;33181;49.246;7.372;2023-02-28T03:50:42;99612.91;;;-1.43;67.06
47430;BME280;33181;49.246;7.372;2023-02-28T03:53:34;99608.44;;;-1.33;66.99
47430;BME280;33181;49.246;7.372;2023-02-28T03:56:20;99609.50;;;-1.43;67.16
47430;BME280;33181;49.246;7.372;2023-02-28T03:59:00;99615.31;;;-1.32;66.93
47430;BME280;33181;49.246;7.372;2023-02-28T04:01:36;99617.16;;;-1.40;67.17
47430;BME280;33181;49.246;7.372;2023-02-28T04:04:03;99608.81;;;-1.53;67.99
47430;BME280;33181;49.246;7.372;2023-02-28T04:06:32;99609.69;;;-1.54;67.82
47430;BME280;33181;49.246;7.372;2023-02-28T04:08:58;99614.94;;;-1.60;68.47
47430;BME280;33181;49.246;7.372;2023-02-28T04:11:40;99610.81;;;-1.69;69.33
47430;BME280;33181;49.246;7.372;2023-02-28T04:14:08;99612.44;;;-1.63;68.95
47430;BME280;33181;49.246;7.372;2023-02-28T04:16:40;99608.06;;;-1.59;68.87
47430;BME280;33181;49.246;7.372;2023-02-28T04:19:08;99614.06;;;-1.59;68.96
47430;BME280;33181;49.246;7.372;2023-02-28T04:21:39;99616.63;;;-1.57;69.14
47430;BME280;33181;49.246;7.372;2023-02-28T04:24:07;99605.38;;;-1.53;68.60
47430;BME280;33181;49.246;7.372;2023-02-28T04:26:36;99602.03;;;-1.57;68.95
47430;BME280;33181;49.246;7.372;2023-02-28T04:29:04;99605.22;;;-1.44;68.49
47430;BME280;33181;49.246;7.372;2023-02-28T04:31:31;99611.44;;;-1.56;68.88
47430;BME280;33181;49.246;7.372;2023-02-28T04:33:57;99607.34;;;-1.66;69.59
47430;BME280;33181;49.246;7.372;2023-02-28T04:36:26;99610.72;;;-1.64;69.53
47430;BME280;33181;49.246;7.372;2023-02-28T04:38:52;99606.31;;;-1.57;69.23
47430;BME280;33181;49.246;7.372;2023-02-28T04:41:18;99608.03;;;-1.58;69.24
47430;BME280;33181;49.246;7.372;2023-02-28T04:43:44;99596.03;;;-1.59;69.49
47430;BME280;33181;49.246;7.372;2023-02-28T04:46:10;99597.69;;;-1.55;68.96
47430;BME280;33181;49.246;7.372;2023-02-28T04:48:38;99601.19;;;-1.57;68.79
47430;BME280;33181;49.246;7.372;2023-02-28T04:51:11;99610.03;;;-1.74;69.76
47430;BME280;33181;49.246;7.372;2023-02-28T04:53:39;99604.91;;;-1.75;70.07
47430;BME280;33181;49.246;7.372;2023-02-28T04:56:07;99609.81;;;-1.61;69.96
47430;BME280;33181;49.246;7.372;2023-02-28T04:58:34;99603.13;;;-1.72;70.19
47430;BME280;33181;49.246;7.372;2023-02-28T05:01:06;99617.06;;;-1.83;70.50
47430;BME280;33181;49.246;7.372;2023-02-28T05:03:39;99614.56;;;-1.88;70.66
47430;BME280;33181;49.246;7.372;2023-02-28T05:06:07;99615.41;;;-1.88;70.94
47430;BME280;33181;49.246;7.372;2023-02-28T05:08:33;99611.19;;;-1.92;71.04
47430;BME280;33181;49.246;7.372;2023-02-28T05:10:59;99609.47;;;-1.93;71.02
47430;BME280;33181;49.246;7.372;2023-02-28T05:13:28;99618.72;;;-1.81;70.80
47430;BME280;33181;49.246;7.372;2023-02-28T05:15:55;99620.31;;;-1.74;70.75
47430;BME280;33181;49.246;7.372;2023-02-28T05:18:21;99621.41;;;-1.85;70.70
47430;BME280;33181;49.246;7.372;2023-02-28T05:20:47;99623.97;;;-1.87;70.75
47430;BME280;33181;49.246;7.372;2023-02-28T05:23:14;99624.16;;;-1.99;71.80
47430;BME280;33181;49.246;7.372;2023-02-28T05:25:40;99624.16;;;-1.98;71.45
47430;BME280;33181;49.246;7.372;2023-02-28T05:28:07;99629.16;;;-1.90;71.58
47430;BME280;33181;49.246;7.372;2023-02-28T05:30:33;99626.59;;;-1.89;71.75
47430;BME280;33181;49.246;7.372;2023-02-28T05:32:59;99621.63;;;-2.01;71.62
47430;BME280;33181;49.246;7.372;2023-02-28T05:35:25;99627.59;;;-1.99;71.56
47430;BME280;33181;49.246;7.372;2023-02-28T05:37:52;99624.97;;;-1.94;71.92
47430;BME280;33181;49.246;7.372;2023-02-28T05:40:18;99629.16;;;-1.90;71.69
47430;BME280;33181;49.246;7.372;2023-02-28T05:42:46;99633.53;;;-1.92;71.62
47430;BME280;33181;49.246;7.372;2023-02-28T05:45:14;99640.47;;;-1.99;71.77
47430;BME280;33181;49.246;7.372;2023-02-28T05:47:40;99632.78;;;-2.02;71.56
47430;BME280;33181;49.246;7.372;2023-02-28T05:50:07;99635.47;;;-2.10;72.01
47430;BME280;33181;49.246;7.372;2023-02-28T05:52:33;99628.41;;;-1.97;71.46
47430;BME280;33181;49.246;7.372;2023-02-28T05:54:59;99630.16;;;-1.99;72.10
47430;BME280;33181;49.246;7.372;2023-02-28T05:57:25;99633.63;;;-2.00;71.81
47430;BME280;33181;49.246;7.372;2023-02-28T05:59:50;99628.41;;;-1.97;71.72
47430;BME280;33181;49.246;7.372;2023-02-28T06:02:17;99632.88;;;-2.06;72.39
47430;BME280;33181;49.246;7.372;2023-02-28T06:04:44;99636.19;;;-2.00;72.08
47430;BME280;33181;49.246;7.372;2023-02-28T06:07:10;99631.84;;;-1.95;71.88
47430;BME280;33181;49.246;7.372;2023-02-28T06:09:36;99636.94;;;-1.93;71.85
47430;BME280;33181;49.246;7.372;2023-02-28T06:12:04;99639.38;;;-1.84;71.49
47430;BME280;33181;49.246;7.372;2023-02-28T06:14:32;99638.44;;;-1.80;71.76
47430;BME280;33181;49.246;7.372;2023-02-28T06:16:59;99636.78;;;-1.82;71.35
47430;BME280;33181;49.246;7.372;2023-02-28T06:19:25;99644.63;;;-1.90;71.61
47430;BME280;33181;49.246;7.372;2023-02-28T06:21:53;99643.69;;;-1.84;71.70
47430;BME280;33181;49.246;7.372;2023-02-28T06:24:20;99644.56;;;-1.87;72.14
47430;BME280;33181;49.246;7.372;2023-02-28T06:26:46;99648.78;;;-1.83;72.02
47430;BME280;33181;49.246;7.372;2023-02-28T06:29:12;99650.56;;;-1.85;72.32
47430;BME280;33181;49.246;7.372;2023-02-28T06:31:44;99652.16;;;-1.78;72.04
47430;BME280;33181;49.246;7.372;2023-02-28T06:34:11;99653.69;;;-1.66;71.49
47430;BME280;33181;49.246;7.372;2023-02-28T06:36:38;99645.13;;;-1.67;71.11
47430;BME280;33181;49.246;7.372;2023-02-28T06:39:05;99663.91;;;-1.61;71.51
47430;BME280;33181;49.246;7.372;2023-02-28T06:41:31;99664.88;;;-1.69;71.45
47430;BME280;33181;49.246;7.372;2023-02-28T06:43:57;99669.00;;;-1.57;71.40
47430;BME280;33181;49.246;7.372;2023-02-28T06:46:23;99668.84;;;-1.49;71.05
47430;BME280;33181;49.246;7.372;2023-02-28T06:48:49;99674.16;;;-1.57;71.08
47430;BME280;33181;49.246;7.372;2023-02-28T06:51:19;99665.56;;;-1.57;71.35
47430;BME280;33181;49.246;7.372;2023-02-28T06:53:47;99670.69;;;-1.54;71.26
47430;BME280;33181;49.246;7.372;2023-02-28T06:56:15;99673.13;;;-1.48;71.32
47430;BME280;33181;49.246;7.372;2023-02-28T06:58:41;99671.41;;;-1.48;70.74
47430;BME280;33181;49.246;7.372;2023-02-28T07:01:08;99680.00;;;-1.49;71.18
47430;BME280;33181;49.246;7.372;2023-02-28T07:03:35;99684.22;;;-1.43;71.19
47430;BME280;33181;49.246;7.372;2023-02-28T07:06:02;99686.72;;;-1.38;70.57
47430;BME280;33181;49.246;7.372;2023-02-28T07:08:28;99683.22;;;-1.34;70.81
47430;BME280;33181;49.246;7.372;2023-02-28T07:10:55;99678.81;;;-0.83;69.63
47430;BME280;33181;49.246;7.372;2023-02-28T07:13:22;99683.41;;;-0.54;67.96
47430;BME280;33181;49.246;7.372;2023-02-28T07:15:56;99687.41;;;-0.39;66.62
47430;BME280;33181;49.246;7.372;2023-02-28T07:18:22;99684.66;;;-0.31;66.46
47430;BME280;33181;49.246;7.372;2023-02-28T07:20:48;99689.78;;;-0.30;66.34
47430;BME280;33181;49.246;7.372;2023-02-28T07:23:14;99690.09;;;-0.43;66.92
47430;BME280;33181;49.246;7.372;2023-02-28T07:25:39;99692.66;;;-0.43;66.59
47430;BME280;33181;49.246;7.372;2023-02-28T07:28:05;99694.41;;;-0.44;66.57
47430;BME280;33181;49.246;7.372;2023-02-28T07:30:31;99687.44;;;-0.40;66.54
47430;BME280;33181;49.246;7.372;2023-02-28T07:32:56;99692.03;;;-0.55;67.26
47430;BME280;33181;49.246;7.372;2023-02-28T07:35:23;99689.66;;;-0.65;67.73
47430;BME280;33181;49.246;7.372;2023-02-28T07:37:49;99694.91;;;-0.68;67.62
47430;BME280;33181;49.246;7.372;2023-02-28T07:40:15;99691.78;;;-0.86;68.41
47430;BME280;33181;49.246;7.372;2023-02-28T07:42:41;99691.25;;;-1.03;68.70
47430;BME280;33181;49.246;7.372;2023-02-28T07:45:09;99696.53;;;-1.11;68.93
47430;BME280;33181;49.246;7.372;2023-02-28T07:47:41;99694.91;;;-1.15;69.50
47430;BME280;33181;49.246;7.372;2023-02-28T07:50:11;99694.06;;;-1.17;69.88
47430;BME280;33181;49.246;7.372;2023-02-28T07:52:37;99690.88;;;-1.31;70.19
47430;BME280;33181;49.246;7.372;2023-02-28T07:55:05;99687.47;;;-1.32;70.29
47430;BME280;33181;49.246;7.372;2023-02-28T07:57:32;99691.69;;;-1.29;70.66
47430;BME280;33181;49.246;7.372;2023-02-28T07:59:58;99692.47;;;-1.24;70.29
47430;BME280;33181;49.246;7.372;2023-02-28T08:02:24;99695.06;;;-1.24;70.32
47430;BME280;33181;49.246;7.372;2023-02-28T08:04:50;99697.69;;;-1.27;70.23
47430;BME280;33181;49.246;7.372;2023-02-28T08:07:17;99697.56;;;-1.21;69.81
47430;BME280;33181;49.246;7.372;2023-02-28T08:09:44;99690.47;;;-1.08;70.04
47430;BME280;33181;49.246;7.372;2023-02-28T08:12:11;99689.34;;;-0.94;69.57
47430;BME280;33181;49.246;7.372;2023-02-28T08:14:39;99691.78;;;-0.86;68.97
47430;BME280;33181;49.246;7.372;2023-02-28T08:17:05;99700.28;;;-0.82;68.95
47430;BME280;33181;49.246;7.372;2023-02-28T08:19:32;99696.03;;;-0.83;68.81
47430;BME280;33181;49.246;7.372;2023-02-28T08:21:58;99693.63;;;-0.93;68.89
47430;BME280;33181;49.246;7.372;2023-02-28T08:24:24;99699.41;;;-0.80;68.90
47430;BME280;33181;49.246;7.372;2023-02-28T08:26:50;99701.84;;;-0.72;68.37
47430;BME280;33181;49.246;7.372;2023-02-28T08:29:16;99701.19;;;-0.82;68.32
47430;BME280;33181;49.246;7.372;2023-02-28T08:31:42;99699.28;;;-0.74;68.33
47430;BME280;33181;49.246;7.372;2023-02-28T08:34:14;99696.38;;;-0.57;67.74
47430;BME280;33181;49.246;7.372;2023-02-28T08:36:40;99695.25;;;-0.43;67.92
47430;BME280;33181;49.246;7.372;2023-02-28T08:39:07;99688.97;;;-0.32;67.16
47430;BME280;33181;49.246;7.372;2023-02-28T08:41:33;99688.00;;;-0.26;66.72
47430;BME280;33181;49.246;7.372;2023-02-28T08:43:59;99695.66;;;-0.21;66.50
47430;BME280;33181;49.246;7.372;2023-02-28T08:46:25;99694.44;;;-0.07;65.82
47430;BME280;33181;49.246;7.372;2023-02-28T08:48:56;99689.06;;;0.03;66.31
47430;BME280;33181;49.246;7.372;2023-02-28T08:51:25;99686.44;;;0.06;65.87
47430;BME280;33181;49.246;7.372;2023-02-28T08:54:01;99690.78;;;0.04;65.47
47430;BME280;33181;49.246;7.372;2023-02-28T08:56:28;99694.94;;;0.11;65.69
47430;BME280;33181;49.246;7.372;2023-02-28T08:58:56;99693.25;;;0.10;65.55
47430;BME280;33181;49.246;7.372;2023-02-28T09:01:26;99694.66;;;0.23;64.72
47430;BME280;33181;49.246;7.372;2023-02-28T09:03:55;99684.91;;;0.34;64.70
47430;BME280;33181;49.246;7.372;2023-02-28T09:06:25;99686.34;;;0.46;63.82
47430;BME280;33181;49.246;7.372;2023-02-28T09:08:51;99690.44;;;0.55;63.47
47430;BME280;33181;49.246;7.372;2023-02-28T09:11:18;99695.94;;;0.41;63.08
47430;BME280;33181;49.246;7.372;2023-02-28T09:13:45;99696.72;;;0.44;63.62
47430;BME280;33181;49.246;7.372;2023-02-28T09:16:14;99699.97;;;0.53;63.57
47430;BME280;33181;49.246;7.372;2023-02-28T09:18:41;99690.81;;;0.39;63.12
47430;BME280;33181;49.246;7.372;2023-02-28T09:21:10;99691.22;;;0.58;63.23
47430;BME280;33181;49.246;7.372;2023-02-28T09:23:39;99697.06;;;0.65;63.00
47430;BME280;33181;49.246;7.372;2023-02-28T09:26:05;99698.13;;;0.58;62.23
47430;BME280;33181;49.246;7.372;2023-02-28T09:28:31;99690.47;;;0.53;63.10
47430;BME280;33181;49.246;7.372;2023-02-28T09:30:57;99693.03;;;0.89;62.30
47430;BME280;33181;49.246;7.372;2023-02-28T09:33:25;99692.91;;;0.93;61.29
47430;BME280;33181;49.246;7.372;2023-02-28T09:35:59;99686.72;;;0.99;61.11
47430;BME280;33181;49.246;7.372;2023-02-28T09:38:25;99692.16;;;1.21;59.78
47430;BME280;33181;49.246;7.372;2023-02-28T09:41:03;99686.34;;;1.13;59.82
47430;BME280;33181;49.246;7.372;2023-02-28T09:43:39;99696.00;;;1.06;60.30
47430;BME280;33181;49.246;7.372;2023-02-28T09:49:11;99699.84;;;1.24;59.97
47430;BME280;33181;49.246;7.372;2023-02-28T09:51:58;99683.25;;;1.31;59.53
47430;BME280;33181;49.246;7.372;2023-02-28T09:54:30;99688.16;;;1.11;59.72
47430;BME280;33181;49.246;7.372;2023-02-28T09:57:38;99693.06;;;1.20;59.94
47430;BME280;33181;49.246;7.372;2023-02-28T10:00:19;99684.84;;;1.37;59.87
47430;BME280;33181;49.246;7.372;2023-02-28T10:03:24;99684.31;;;1.55;59.73
47430;BME280;33181;49.246;7.372;2023-02-28T10:08:32;99685.59;;;1.41;59.04
47430;BME280;33181;49.246;7.372;2023-02-28T10:11:02;99685.94;;;1.28;59.77
47430;BME280;33181;49.246;7.372;2023-02-28T10:14:04;99686.25;;;1.47;59.35
47430;BME280;33181;49.246;7.372;2023-02-28T10:16:49;99682.81;;;1.48;59.77
47430;BME280;33181;49.246;7.372;2023-02-28T10:22:14;99668.53;;;1.33;59.07
47430;BME280;33181;49.246;7.372;2023-02-28T10:24:46;99673.97;;;1.54;59.07
47430;BME280;33181;49.246;7.372;2023-02-28T10:27:31;99678.09;;;1.91;57.91
47430;BME280;33181;49.246;7.372;2023-02-28T10:30:00;99681.22;;;1.72;58.04
47430;BME280;33181;49.246;7.372;2023-02-28T10:32:34;99682.72;;;1.79;58.49
47430;BME280;33181;49.246;7.372;2023-02-28T10:35:10;99688.47;;;1.89;58.57
47430;BME280;33181;49.246;7.372;2023-02-28T10:37:41;99684.69;;;2.01;57.36
47430;BME280;33181;49.246;7.372;2023-02-28T10:40:34;99674.66;;;2.18;57.27
47430;BME280;33181;49.246;7.372;2023-02-28T10:43:19;99682.03;;;2.30;56.99
47430;BME280;33181;49.246;7.372;2023-02-28T10:46:18;99679.50;;;2.01;56.37
47430;BME280;33181;49.246;7.372;2023-02-28T10:49:05;99681.53;;;1.91;56.43
47430;BME280;33181;49.246;7.372;2023-02-28T10:51:40;99675.59;;;1.88;56.70
47430;BME280;33181;49.246;7.372;2023-02-28T10:54:35;99678.63;;;2.02;56.46
47430;BME280;33181;49.246;7.372;2023-02-28T10:59:45;99673.09;;;2.13;56.67
47430;BME280;33181;49.246;7.372;2023-02-28T11:02:33;99671.78;;;2.27;56.40
47430;BME280;33181;49.246;7.372;2023-02-28T11:05:00;99669.03;;;2.59;56.28
47430;BME280;33181;49.246;7.372;2023-02-28T11:07:26;99668.56;;;2.46;54.96
47430;BME280;33181;49.246;7.372;2023-02-28T11:09:56;99671.25;;;2.69;55.66
47430;BME280;33181;49.246;7.372;2023-02-28T11:12:37;99665.25;;;2.94;53.98
47430;BME280;33181;49.246;7.372;2023-02-28T11:15:28;99669.13;;;2.55;52.62
47430;BME280;33181;49.246;7.372;2023-02-28T11:17:59;99665.47;;;2.61;53.29
47430;BME280;33181;49.246;7.372;2023-02-28T11:20:29;99666.19;;;2.40;52.71
47430;BME280;33181;49.246;7.372;2023-02-28T11:22:57;99659.78;;;2.23;53.92
47430;BME280;33181;49.246;7.372;2023-02-28T11:28:02;99655.97;;;2.35;54.07
47430;BME280;33181;49.246;7.372;2023-02-28T11:30:40;99649.53;;;2.47;53.63
47430;BME280;33181;49.246;7.372;2023-02-28T11:33:30;99653.38;;;2.35;53.71
47430;BME280;33181;49.246;7.372;2023-02-28T11:36:17;99641.56;;;2.78;53.45
47430;BME280;33181;49.246;7.372;2023-02-28T11:38:43;99651.78;;;2.83;52.74
47430;BME280;33181;49.246;7.372;2023-02-28T11:41:58;99647.00;;;3.20;53.09
47430;BME280;33181;49.246;7.372;2023-02-28T11:44:49;99642.34;;;3.52;51.84
47430;BME280;33181;49.246;7.372;2023-02-28T11:53:45;99633.56;;;3.33;50.47
47430;BME280;33181;49.246;7.372;2023-02-28T11:56:37;99636.72;;;3.17;51.15
47430;BME280;33181;49.246;7.372;2023-02-28T12:05:01;99627.59;;;3.06;51.55
47430;BME280;33181;49.246;7.372;2023-02-28T12:08:15;99629.09;;;3.13;50.64
47430;BME280;33181;49.246;7.372;2023-02-28T12:11:09;99641.53;;;3.28;50.68
47430;BME280;33181;49.246;7.372;2023-02-28T12:13:48;99635.13;;;3.37;50.71
47430;BME280;33181;49.246;7.372;2023-02-28T12:19:39;99636.66;;;3.42;49.88
47430;BME280;33181;49.246;7.372;2023-02-28T12:27:41;99627.22;;;3.63;49.04
47430;BME280;33181;49.246;7.372;2023-02-28T12:30:24;99629.09;;;3.60;48.97
47430;BME280;33181;49.246;7.372;2023-02-28T12:33:13;99626.25;;;3.44;49.30
47430;BME280;33181;49.246;7.372;2023-02-28T12:35:58;99632.56;;;4.04;48.86
47430;BME280;33181;49.246;7.372;2023-02-28T12:38:44;99612.06;;;4.18;47.92
47430;BME280;33181;49.246;7.372;2023-02-28T12:41:16;99616.47;;;4.38;47.98
47430;BME280;33181;49.246;7.372;2023-02-28T12:43:59;99615.59;;;4.79;46.95
47430;BME280;33181;49.246;7.372;2023-02-28T12:46:35;99626.66;;;4.84;46.46
47430;BME280;33181;49.246;7.372;2023-02-28T12:49:15;99615.78;;;4.95;46.22
47430;BME280;33181;49.246;7.372;2023-02-28T12:51:42;99615.09;;;4.71;46.21
47430;BME280;33181;49.246;7.372;2023-02-28T12:54:44;99614.97;;;4.74;46.34
47430;BME280;33181;49.246;7.372;2023-02-28T12:57:50;99596.97;;;4.88;45.79
47430;BME280;33181;49.246;7.372;2023-02-28T13:00:24;99600.59;;;4.85;45.32
47430;BME280;33181;49.246;7.372;2023-02-28T13:03:01;99599.41;;;4.93;45.86
47430;BME280;33181;49.246;7.372;2023-02-28T13:06:02;99615.28;;;4.66;45.47
47430;BME280;33181;49.246;7.372;2023-02-28T13:11:41;99604.09;;;4.23;46.08
47430;BME280;33181;49.246;7.372;2023-02-28T13:14:36;99613.22;;;4.32;46.47
47430;BME280;33181;49.246;7.372;2023-02-28T13:22:47;99612.47;;;4.30;46.46
47430;BME280;33181;49.246;7.372;2023-02-28T13:28:13;99606.50;;;4.89;45.45
47430;BME280;33181;49.246;7.372;2023-02-28T13:31:05;99606.31;;;4.73;45.46
47430;BME280;33181;49.246;7.372;2023-02-28T13:36:29;99613.97;;;4.35;46.17
47430;BME280;33181;49.246;7.372;2023-02-28T13:39:01;99628.06;;;4.30;46.72
47430;BME280;33181;49.246;7.372;2023-02-28T13:44:21;99600.78;;;4.81;46.64
47430;BME280;33181;49.246;7.372;2023-02-28T13:49:33;99596.13;;;5.08;44.62
47430;BME280;33181;49.246;7.372;2023-02-28T13:55:00;99596.47;;;4.59;45.83
47430;BME280;33181;49.246;7.372;2023-02-28T14:03:29;99600.38;;;4.90;45.51
47430;BME280;33181;49.246;7.372;2023-02-28T14:08:59;99604.03;;;4.86;45.26
47430;BME280;33181;49.246;7.372;2023-02-28T14:11:36;99606.25;;;4.75;45.55
47430;BME280;33181;49.246;7.372;2023-02-28T14:14:04;99605.31;;;4.96;45.74
47430;BME280;33181;49.246;7.372;2023-02-28T14:16:46;99602.91;;;4.92;45.65
47430;BME280;33181;49.246;7.372;2023-02-28T14:19:28;99605.03;;;5.02;45.45
47430;BME280;33181;49.246;7.372;2023-02-28T14:34:53;99617.81;;;4.27;46.60
47430;BME280;33181;49.246;7.372;2023-02-28T14:37:29;99615.78;;;4.33;46.28
47430;BME280;33181;49.246;7.372;2023-02-28T14:39:59;99611.06;;;4.63;46.50
47430;BME280;33181;49.246;7.372;2023-02-28T14:42:35;99613.59;;;4.65;46.31
47430;BME280;33181;49.246;7.372;2023-02-28T14:45:04;99614.75;;;4.78;45.93
47430;BME280;33181;49.246;7.372;2023-02-28T14:47:34;99613.72;;;4.62;45.62
47430;BME280;33181;49.246;7.372;2023-02-28T14:50:03;99614.03;;;4.34;46.11
47430;BME280;33181;49.246;7.372;2023-02-28T14:52:31;99612.41;;;4.31;46.71
47430;BME280;33181;49.246;7.372;2023-02-28T14:55:05;99611.69;;;4.28;46.43
47430;BME280;33181;49.246;7.372;2023-02-28T14:57:41;99608.91;;;4.32;46.75
47430;BME280;33181;49.246;7.372;2023-02-28T15:00:27;99608.44;;;4.43;46.66
47430;BME280;33181;49.246;7.372;2023-02-28T15:02:54;99607.28;;;4.50;46.49
47430;BME280;33181;49.246;7.372;2023-02-28T15:05:34;99604.16;;;4.42;46.86
47430;BME280;33181;49.246;7.372;2023-02-28T15:08:11;99589.19;;;4.47;46.70
47430;BME280;33181;49.246;7.372;2023-02-28T15:10:38;99603.13;;;4.26;46.68
47430;BME280;33181;49.246;7.372;2023-02-28T15:13:10;99602.72;;;4.35;47.50
47430;BME280;33181;49.246;7.372;2023-02-28T15:20:46;99609.38;;;4.42;47.29
47430;BME280;33181;49.246;7.372;2023-02-28T15:23:16;99616.59;;;4.35;47.01
47430;BME280;33181;49.246;7.372;2023-02-28T15:25:43;99612.84;;;4.41;47.28
47430;BME280;33181;49.246;7.372;2023-02-28T15:28:16;99606.78;;;4.42;47.26
47430;BME280;33181;49.246;7.372;2023-02-28T15:31:03;99605.03;;;4.21;47.51
47430;BME280;33181;49.246;7.372;2023-02-28T15:33:31;99613.50;;;4.26;47.17